createdAt,value
2019-02-27T00:00:22.011Z,32.57
2019-02-27T00:05:30.001Z,31.79
2019-02-27T00:10:39.270Z,30.47
2019-02-27T00:15:45.935Z,30.16
2019-02-27T00:20:54.012Z,29.89
2019-02-27T00:26:02.174Z,30.37
2019-02-27T00:31:11.568Z,29.69
2019-02-27T00:36:18.168Z,30.69
2019-02-27T00:41:26.377Z,34.99
2019-02-27T00:46:34.721Z,30.24
2019-02-27T00:51:44.894Z,29.53
2019-02-27T00:56:50.459Z,30.54
2019-02-27T01:01:59.094Z,31.15
2019-02-27T01:07:07.404Z,31.93
2019-02-27T01:12:15.615Z,32.91
2019-02-27T01:17:24.423Z,34.14
2019-02-27T01:22:31.493Z,34.29
2019-02-27T01:27:39.620Z,33.92
2019-02-27T01:32:47.808Z,32.77
2019-02-27T01:37:55.911Z,33.11
2019-02-27T01:43:06.243Z,31.39
2019-02-27T01:48:11.406Z,30.62
2019-02-27T01:53:19.482Z,31.12
2019-02-27T01:58:27.486Z,31.33
2019-02-27T02:03:35.621Z,32.45
2019-02-27T02:08:47.965Z,33.45
2019-02-27T02:13:51.353Z,34.08
2019-02-27T02:18:59.597Z,35.28
2019-02-27T02:24:08.077Z,36.38
2019-02-27T02:29:17.933Z,36.93
2019-02-27T02:34:23.914Z,36.74
2019-02-27T02:39:32.139Z,37.82
2019-02-27T02:44:40.268Z,38.23
2019-02-27T02:49:48.498Z,38.85
2019-02-27T02:54:56.766Z,39.41
2019-02-27T03:00:04.937Z,39.65
2019-02-27T03:05:13.411Z,39.60
2019-02-27T03:10:21.504Z,40.09
2019-02-27T03:15:29.744Z,40.64
2019-02-27T03:20:37.873Z,40.33
2019-02-27T03:25:46.402Z,40.01
2019-02-27T03:30:54.413Z,40.35
2019-02-27T03:36:03.584Z,39.57
2019-02-27T03:41:10.085Z,38.89
2019-02-27T03:46:18.383Z,37.92
2019-02-27T03:51:26.666Z,36.30
2019-02-27T03:56:35.018Z,36.42
2019-02-27T04:01:43.310Z,35.19
2019-02-27T04:06:53.003Z,34.20
2019-02-27T04:11:59.522Z,34.65
2019-02-27T04:17:07.841Z,34.01
2019-02-27T04:22:15.913Z,34.32
2019-02-27T04:27:23.964Z,34.39
2019-02-27T04:32:32.042Z,33.52
2019-02-27T04:37:40.209Z,32.74
2019-02-27T04:42:48.606Z,32.93
2019-02-27T04:47:56.933Z,32.44
2019-02-27T04:53:05.237Z,32.43
2019-02-27T04:58:13.540Z,31.70
2019-02-27T05:03:22.044Z,30.92
2019-02-27T05:08:30.360Z,30.89
2019-02-27T05:13:38.609Z,30.84
2019-02-27T05:18:46.894Z,31.06
2019-02-27T05:23:55.200Z,30.53
2019-02-27T05:29:04.025Z,31.21
2019-02-27T05:34:13.485Z,31.31
2019-02-27T05:39:20.116Z,31.11
2019-02-27T05:44:28.529Z,31.52
2019-02-27T05:49:36.865Z,32.09
2019-02-27T05:54:45.062Z,32.21
2019-02-27T05:59:53.353Z,32.54
2019-02-27T06:05:01.621Z,30.47
2019-02-27T06:10:10.026Z,27.47
2019-02-27T06:15:18.181Z,26.71
2019-02-27T06:20:26.368Z,26.16
2019-02-27T06:25:34.518Z,25.35
2019-02-27T06:30:42.816Z,24.26
2019-02-27T06:35:51.253Z,24.84
2019-02-27T06:40:59.454Z,24.34
2019-02-27T06:46:07.255Z,24.74
2019-02-27T06:51:19.206Z,24.64
2019-02-27T06:56:17.348Z,24.29
2019-02-27T07:01:25.506Z,24.49
2019-02-27T07:06:33.571Z,24.12
2019-02-27T07:11:45.260Z,24.36
2019-02-27T07:16:49.016Z,23.16
2019-02-27T07:21:57.012Z,22.61
2019-02-27T07:27:05.013Z,22.56
2019-02-27T07:32:13.134Z,23.55
2019-02-27T07:37:21.310Z,23.39
2019-02-27T07:42:31.883Z,23.18
2019-02-27T07:47:36.989Z,22.76
2019-02-27T07:52:45.301Z,23.01
2019-02-27T07:57:58.517Z,23.24
2019-02-27T08:03:00.997Z,24.37
2019-02-27T08:08:08.942Z,22.92
2019-02-27T08:13:17.039Z,22.79
2019-02-27T08:18:30.114Z,23.30
2019-02-27T08:23:32.901Z,22.25
2019-02-27T08:28:41.043Z,22.79
2019-02-27T08:33:49.265Z,22.11
2019-02-27T08:38:57.638Z,22.26
2019-02-27T08:44:05.897Z,22.24
2019-02-27T08:49:14.086Z,22.49
2019-02-27T08:54:22.365Z,22.79
2019-02-27T08:59:30.661Z,22.50
2019-02-27T09:04:39.010Z,22.37
2019-02-27T09:09:51.240Z,23.17
2019-02-27T09:14:55.979Z,25.00
2019-02-27T09:20:02.570Z,24.85
2019-02-27T09:25:11.245Z,24.83
2019-02-27T09:30:19.961Z,25.96
2019-02-27T09:35:32.572Z,27.37
2019-02-27T09:40:38.584Z,27.08
2019-02-27T09:45:46.277Z,27.43
2019-02-27T09:50:51.217Z,26.03
2019-02-27T09:55:59.457Z,25.55
2019-02-27T10:01:07.829Z,25.49
2019-02-27T10:06:16.114Z,26.16
2019-02-27T10:11:24.477Z,26.01
2019-02-27T10:16:34.879Z,25.49
2019-02-27T10:21:41.330Z,26.42
2019-02-27T10:26:48.110Z,26.19
2019-02-27T10:31:58.291Z,26.59
2019-02-27T10:37:03.778Z,34.14
2019-02-27T10:42:11.795Z,27.12
2019-02-27T10:47:20.124Z,27.14
2019-02-27T10:52:28.247Z,27.71
2019-02-27T10:57:38.432Z,26.55
2019-02-27T11:02:47.447Z,27.02
2019-02-27T11:07:52.980Z,26.80
2019-02-27T11:12:59.264Z,27.59
2019-02-27T11:18:07.452Z,27.19
2019-02-27T11:23:13.925Z,27.01
2019-02-27T11:28:21.954Z,26.89
2019-02-27T11:33:32.709Z,27.20
2019-02-27T11:38:43.597Z,26.28
2019-02-27T11:43:41.703Z,26.27
2019-02-27T11:48:50.077Z,26.09
2019-02-27T11:53:58.076Z,26.22
2019-02-27T11:59:06.265Z,24.91
2019-02-27T12:04:14.361Z,26.02
2019-02-27T12:09:22.641Z,27.73
2019-02-27T12:14:30.945Z,26.57
2019-02-27T12:19:42.421Z,26.67
2019-02-27T12:24:47.138Z,27.00
2019-02-27T12:29:55.417Z,25.94
2019-02-27T12:35:03.633Z,27.06
2019-02-27T12:40:11.842Z,27.18
2019-02-27T12:45:20.055Z,26.21
2019-02-27T12:50:31.195Z,24.67
2019-02-27T12:55:36.417Z,24.26
2019-02-27T13:00:43.445Z,23.15
2019-02-27T13:05:51.567Z,22.18
2019-02-27T13:10:59.628Z,22.14
2019-02-27T13:16:07.958Z,19.73
2019-02-27T13:21:20.105Z,19.05
2019-02-27T13:26:23.517Z,19.36
2019-02-27T13:31:31.606Z,19.76
2019-02-27T13:36:39.914Z,19.08
2019-02-27T13:41:47.898Z,18.19
2019-02-27T13:46:57.030Z,18.74
2019-02-27T13:52:03.677Z,20.21
2019-02-27T13:57:11.806Z,19.31
2019-02-27T14:02:20.025Z,18.49
2019-02-27T14:07:28.173Z,19.56
2019-02-27T14:12:36.802Z,18.76
2019-02-27T14:17:44.936Z,19.00
2019-02-27T14:22:53.065Z,19.63
2019-02-27T14:28:01.285Z,18.90
2019-02-27T14:33:11.011Z,18.99
2019-02-27T14:38:16.981Z,19.85
2019-02-27T14:43:27.454Z,19.62
2019-02-27T14:48:32.732Z,20.28
2019-02-27T14:53:40.910Z,20.70
2019-02-27T14:58:49.208Z,19.81
2019-02-27T15:04:00.384Z,20.29
2019-02-27T15:09:06.275Z,19.89
2019-02-27T15:14:12.078Z,20.40
2019-02-27T15:19:20.256Z,20.03
2019-02-27T15:24:28.304Z,20.38
2019-02-27T15:29:36.967Z,20.75
2019-02-27T15:34:45.946Z,21.10
2019-02-27T15:39:52.060Z,20.24
2019-02-27T15:44:58.794Z,21.04
2019-02-27T15:50:06.829Z,20.02
2019-02-27T15:55:15.047Z,19.52
2019-02-27T16:00:23.260Z,19.00
2019-02-27T16:05:31.744Z,18.91
2019-02-27T16:10:42.477Z,18.64
2019-02-27T16:15:48.525Z,18.02
2019-02-27T16:20:54.666Z,19.24
2019-02-27T16:26:02.830Z,18.73
2019-02-27T16:31:11.977Z,17.67
2019-02-27T16:36:20.256Z,17.72
2019-02-27T16:41:29.315Z,17.95
2019-02-27T16:46:36.289Z,17.77
2019-02-27T16:51:46.563Z,18.03
2019-02-27T16:56:50.863Z,18.03
2019-02-27T17:01:48.212Z,19.00
2019-02-27T17:07:11.947Z,17.81
2019-02-27T17:12:06.565Z,17.20
2019-02-27T17:17:10.845Z,17.81
2019-02-27T17:27:57.310Z,17.02
2019-02-27T17:32:54.428Z,16.06
2019-02-27T17:37:30.730Z,16.37
2019-02-27T17:42:38.978Z,16.29
2019-02-27T17:47:47.545Z,16.36
2019-02-27T17:52:55.704Z,16.73
2019-02-27T17:58:03.822Z,16.38
2019-02-27T18:03:25.689Z,15.68
2019-02-27T18:08:21.854Z,15.62
2019-02-27T18:13:33.075Z,15.61
2019-02-27T18:18:37.849Z,15.88
2019-02-27T18:23:48.342Z,15.32
2019-02-27T18:28:46.645Z,15.70
2019-02-27T18:33:58.181Z,17.24
2019-02-27T18:39:01.529Z,16.28
2019-02-27T18:44:08.052Z,16.94
2019-02-27T18:49:18.693Z,17.06
2019-02-27T18:54:15.732Z,16.89
2019-02-27T18:59:29.423Z,17.06
2019-02-27T19:04:35.015Z,17.16
2019-02-27T19:09:39.710Z,17.26
2019-02-27T19:14:54.173Z,17.24
2019-02-27T19:19:55.907Z,17.10
2019-02-27T19:24:53.416Z,17.05
2019-02-27T19:30:06.258Z,17.03
2019-02-27T19:35:10.011Z,17.96
2019-02-27T19:45:23.882Z,17.70
2019-02-27T19:50:33.933Z,17.74
2019-02-27T19:55:32.855Z,17.60
2019-02-27T20:00:48.054Z,17.89
2019-02-27T20:05:50.546Z,18.47
2019-02-27T20:10:57.022Z,18.46
2019-02-27T20:16:05.159Z,17.86
2019-02-27T20:21:13.751Z,17.80
2019-02-27T20:26:24.375Z,19.35
2019-02-27T20:31:29.814Z,25.40
2019-02-27T20:36:38.578Z,18.89
2019-02-27T20:41:46.853Z,19.03
2019-02-27T20:46:55.073Z,18.95
2019-02-27T20:52:04.750Z,19.00
2019-02-27T20:57:13.623Z,19.11
2019-02-27T21:02:22.118Z,19.11
2019-02-27T21:07:30.320Z,19.64
2019-02-27T21:12:40.655Z,19.60
2019-02-27T21:17:47.886Z,19.49
2019-02-27T21:22:59.852Z,20.20
2019-02-27T21:28:06.534Z,20.05
2019-02-27T21:33:12.021Z,19.93
2019-02-27T21:38:20.250Z,19.71
2019-02-27T21:43:27.345Z,19.71
2019-02-27T21:48:35.871Z,21.10
2019-02-27T21:53:44.304Z,19.71
2019-02-27T21:58:52.544Z,19.24
2019-02-27T22:04:00.729Z,18.87
2019-02-27T22:09:10.143Z,19.72
2019-02-27T22:14:17.738Z,19.82
2019-02-27T22:19:24.968Z,19.57
2019-02-27T22:24:33.086Z,19.29
2019-02-27T22:29:41.368Z,19.62
2019-02-27T22:34:50.497Z,19.42
2019-02-27T22:39:58.532Z,20.20
2019-02-27T22:45:06.773Z,20.62
2019-02-27T22:50:14.941Z,24.76
2019-02-27T22:55:23.253Z,21.80
2019-02-27T23:00:31.445Z,20.52
2019-02-27T23:05:39.703Z,20.72
2019-02-27T23:10:47.914Z,21.07
2019-02-27T23:15:58.859Z,21.03
2019-02-27T23:21:03.633Z,21.52
2019-02-27T23:26:11.858Z,21.63
2019-02-27T23:31:22.644Z,21.62
2019-02-27T23:36:27.484Z,22.04
2019-02-27T23:41:35.699Z,22.80
2019-02-27T23:46:49.625Z,23.71
2019-02-27T23:51:51.369Z,25.04
2019-02-27T23:56:59.469Z,25.97
